sensor_id;sensor_type;location;lat;lon;timestamp;temperature;humidity
1626;DHT22;806;48.770;9.156;2023-07-22T00:00:09;17.80;1.00
1626;DHT22;806;48.770;9.156;2023-07-22T00:02:40;17.60;99.90
1626;DHT22;806;48.770;9.156;2023-07-22T00:05:08;17.50;1.00
1626;DHT22;806;48.770;9.156;2023-07-22T00:07:37;17.30;1.00
1626;DHT22;806;48.770;9.156;2023-07-22T00:10:07;17.30;38.00
1626;DHT22;806;48.770;9.156;2023-07-22T00:12:34;17.30;99.90
1626;DHT22;806;48.770;9.156;2023-07-22T00:15:02;17.30;57.70
1626;DHT22;806;48.770;9.156;2023-07-22T00:17:31;17.40;1.00
1626;DHT22;806;48.770;9.156;2023-07-22T00:19:58;17.40;1.00
1626;DHT22;806;48.770;9.156;2023-07-22T00:22:26;17.30;1.00
1626;DHT22;806;48.770;9.156;2023-07-22T00:24:56;17.30;44.90
1626;DHT22;806;48.770;9.156;2023-07-22T00:27:25;17.30;60.30
1626;DHT22;806;48.770;9.156;2023-07-22T00:29:52;17.30;89.40
1626;DHT22;806;48.770;9.156;2023-07-22T00:32:19;17.30;99.90
1626;DHT22;806;48.770;9.156;2023-07-22T00:34:46;17.20;99.90
1626;DHT22;806;48.770;9.156;2023-07-22T00:37:13;17.00;99.90
1626;DHT22;806;48.770;9.156;2023-07-22T00:39:42;16.80;1.00
1626;DHT22;806;48.770;9.156;2023-07-22T00:42:10;16.80;1.00
1626;DHT22;806;48.770;9.156;2023-07-22T00:44:37;16.60;1.00
1626;DHT22;806;48.770;9.156;2023-07-22T00:47:04;16.50;1.00
1626;DHT22;806;48.770;9.156;2023-07-22T00:49:32;16.40;1.00
1626;DHT22;806;48.770;9.156;2023-07-22T00:52:01;16.30;1.00
1626;DHT22;806;48.770;9.156;2023-07-22T00:54:28;16.40;1.00
1626;DHT22;806;48.770;9.156;2023-07-22T00:56:56;16.30;1.00
1626;DHT22;806;48.770;9.156;2023-07-22T00:59:25;16.40;1.00
1626;DHT22;806;48.770;9.156;2023-07-22T01:01:52;16.40;1.00
1626;DHT22;806;48.770;9.156;2023-07-22T01:04:20;16.40;1.00
1626;DHT22;806;48.770;9.156;2023-07-22T01:06:49;16.40;1.00
1626;DHT22;806;48.770;9.156;2023-07-22T01:09:18;16.40;1.00
1626;DHT22;806;48.770;9.156;2023-07-22T01:11:45;16.40;1.00
1626;DHT22;806;48.770;9.156;2023-07-22T01:14:14;16.30;1.00
1626;DHT22;806;48.770;9.156;2023-07-22T01:16:42;16.30;1.00
1626;DHT22;806;48.770;9.156;2023-07-22T01:19:11;16.30;1.00
1626;DHT22;806;48.770;9.156;2023-07-22T01:21:42;16.40;1.00
1626;DHT22;806;48.770;9.156;2023-07-22T01:24:11;16.40;1.00
1626;DHT22;806;48.770;9.156;2023-07-22T01:26:38;16.50;1.00
1626;DHT22;806;48.770;9.156;2023-07-22T01:29:06;16.60;1.00
1626;DHT22;806;48.770;9.156;2023-07-22T01:31:34;16.70;1.00
1626;DHT22;806;48.770;9.156;2023-07-22T01:34:02;16.70;1.00
1626;DHT22;806;48.770;9.156;2023-07-22T01:36:29;16.60;1.00
1626;DHT22;806;48.770;9.156;2023-07-22T01:38:56;16.50;1.00
1626;DHT22;806;48.770;9.156;2023-07-22T01:41:25;16.50;1.00
1626;DHT22;806;48.770;9.156;2023-07-22T01:43:52;16.40;1.00
1626;DHT22;806;48.770;9.156;2023-07-22T01:46:19;16.40;1.00
1626;DHT22;806;48.770;9.156;2023-07-22T01:48:47;16.40;1.00
1626;DHT22;806;48.770;9.156;2023-07-22T01:51:14;16.40;1.00
1626;DHT22;806;48.770;9.156;2023-07-22T01:53:41;16.30;1.00
1626;DHT22;806;48.770;9.156;2023-07-22T01:56:08;16.20;1.00
1626;DHT22;806;48.770;9.156;2023-07-22T01:58:36;16.10;1.00
1626;DHT22;806;48.770;9.156;2023-07-22T02:01:03;16.10;1.00
1626;DHT22;806;48.770;9.156;2023-07-22T02:03:30;16.00;1.00
1626;DHT22;806;48.770;9.156;2023-07-22T02:06:02;16.10;1.00
1626;DHT22;806;48.770;9.156;2023-07-22T02:08:29;16.00;1.00
1626;DHT22;806;48.770;9.156;2023-07-22T02:11:00;15.90;1.00
1626;DHT22;806;48.770;9.156;2023-07-22T02:13:28;15.90;1.00
1626;DHT22;806;48.770;9.156;2023-07-22T02:15:56;15.90;1.00
1626;DHT22;806;48.770;9.156;2023-07-22T02:18:24;15.80;1.00
1626;DHT22;806;48.770;9.156;2023-07-22T02:20:51;15.80;1.00
1626;DHT22;806;48.770;9.156;2023-07-22T02:23:18;15.80;1.00
1626;DHT22;806;48.770;9.156;2023-07-22T02:25:48;15.80;1.00
1626;DHT22;806;48.770;9.156;2023-07-22T02:28:15;15.80;1.00
1626;DHT22;806;48.770;9.156;2023-07-22T02:30:46;15.80;1.00
1626;DHT22;806;48.770;9.156;2023-07-22T02:33:15;15.70;1.00
1626;DHT22;806;48.770;9.156;2023-07-22T02:35:42;15.90;1.00
1626;DHT22;806;48.770;9.156;2023-07-22T02:38:09;16.00;1.00
1626;DHT22;806;48.770;9.156;2023-07-22T02:40:37;16.10;1.00
1626;DHT22;806;48.770;9.156;2023-07-22T02:43:04;16.10;1.00
1626;DHT22;806;48.770;9.156;2023-07-22T02:45:32;16.10;1.00
1626;DHT22;806;48.770;9.156;2023-07-22T02:47:59;16.20;1.00
1626;DHT22;806;48.770;9.156;2023-07-22T02:50:28;16.10;1.00
1626;DHT22;806;48.770;9.156;2023-07-22T02:52:55;16.10;1.00
1626;DHT22;806;48.770;9.156;2023-07-22T02:55:22;16.10;1.00
1626;DHT22;806;48.770;9.156;2023-07-22T02:57:49;16.10;1.00
1626;DHT22;806;48.770;9.156;2023-07-22T03:00:18;16.10;1.00
1626;DHT22;806;48.770;9.156;2023-07-22T03:02:49;16.20;1.00
1626;DHT22;806;48.770;9.156;2023-07-22T03:05:17;16.20;1.00
1626;DHT22;806;48.770;9.156;2023-07-22T03:07:46;16.10;1.00
1626;DHT22;806;48.770;9.156;2023-07-22T03:10:13;16.10;1.00
1626;DHT22;806;48.770;9.156;2023-07-22T03:12:40;16.00;1.00
1626;DHT22;806;48.770;9.156;2023-07-22T03:15:08;16.10;1.00
1626;DHT22;806;48.770;9.156;2023-07-22T03:17:35;16.10;1.00
1626;DHT22;806;48.770;9.156;2023-07-22T03:20:02;15.90;1.00
1626;DHT22;806;48.770;9.156;2023-07-22T03:22:34;15.70;1.00
1626;DHT22;806;48.770;9.156;2023-07-22T03:25:03;15.90;1.00
1626;DHT22;806;48.770;9.156;2023-07-22T03:27:33;16.00;1.00
1626;DHT22;806;48.770;9.156;2023-07-22T03:30:00;16.10;1.00
1626;DHT22;806;48.770;9.156;2023-07-22T03:32:27;16.00;1.00
1626;DHT22;806;48.770;9.156;2023-07-22T03:34:54;15.90;1.00
1626;DHT22;806;48.770;9.156;2023-07-22T03:37:21;15.80;1.00
1626;DHT22;806;48.770;9.156;2023-07-22T03:39:48;15.80;1.00
1626;DHT22;806;48.770;9.156;2023-07-22T03:42:17;15.70;1.00
1626;DHT22;806;48.770;9.156;2023-07-22T03:44:44;15.60;1.00
1626;DHT22;806;48.770;9.156;2023-07-22T03:47:11;15.60;1.00
1626;DHT22;806;48.770;9.156;2023-07-22T03:49:38;15.60;1.00
1626;DHT22;806;48.770;9.156;2023-07-22T03:52:06;15.40;1.00
1626;DHT22;806;48.770;9.156;2023-07-22T03:54:33;15.20;1.00
1626;DHT22;806;48.770;9.156;2023-07-22T03:57:00;15.20;1.00
1626;DHT22;806;48.770;9.156;2023-07-22T03:59:29;15.10;1.00
1626;DHT22;806;48.770;9.156;2023-07-22T04:01:56;15.10;1.00
1626;DHT22;806;48.770;9.156;2023-07-22T04:04:22;15.10;1.00
1626;DHT22;806;48.770;9.156;2023-07-22T04:06:49;15.10;1.00
1626;DHT22;806;48.770;9.156;2023-07-22T04:09:16;15.10;1.00
1626;DHT22;806;48.770;9.156;2023-07-22T04:11:43;15.40;1.00
1626;DHT22;806;48.770;9.156;2023-07-22T04:14:10;15.70;1.00
1626;DHT22;806;48.770;9.156;2023-07-22T04:16:39;15.80;1.00
1626;DHT22;806;48.770;9.156;2023-07-22T04:19:06;15.80;1.00
1626;DHT22;806;48.770;9.156;2023-07-22T04:21:33;15.80;1.00
1626;DHT22;806;48.770;9.156;2023-07-22T04:24:00;15.70;1.00
1626;DHT22;806;48.770;9.156;2023-07-22T04:26:27;15.60;1.00
1626;DHT22;806;48.770;9.156;2023-07-22T04:28:54;15.50;1.00
1626;DHT22;806;48.770;9.156;2023-07-22T04:31:21;15.50;1.00
1626;DHT22;806;48.770;9.156;2023-07-22T04:33:50;15.40;1.00
1626;DHT22;806;48.770;9.156;2023-07-22T04:36:17;15.50;1.00
1626;DHT22;806;48.770;9.156;2023-07-22T04:38:44;15.40;1.00
1626;DHT22;806;48.770;9.156;2023-07-22T04:41:11;15.30;1.00
1626;DHT22;806;48.770;9.156;2023-07-22T04:43:37;15.30;1.00
1626;DHT22;806;48.770;9.156;2023-07-22T04:46:05;15.40;1.00
1626;DHT22;806;48.770;9.156;2023-07-22T04:48:33;15.40;1.00
1626;DHT22;806;48.770;9.156;2023-07-22T04:51:01;15.50;1.00
1626;DHT22;806;48.770;9.156;2023-07-22T04:53:29;15.50;1.00
1626;DHT22;806;48.770;9.156;2023-07-22T04:55:56;15.60;1.00
1626;DHT22;806;48.770;9.156;2023-07-22T04:58:23;15.60;1.00
1626;DHT22;806;48.770;9.156;2023-07-22T05:00:50;15.60;1.00
1626;DHT22;806;48.770;9.156;2023-07-22T05:03:17;15.60;1.00
1626;DHT22;806;48.770;9.156;2023-07-22T05:05:44;15.70;1.00
1626;DHT22;806;48.770;9.156;2023-07-22T05:08:13;15.80;1.00
1626;DHT22;806;48.770;9.156;2023-07-22T05:10:40;15.80;1.00
1626;DHT22;806;48.770;9.156;2023-07-22T05:13:07;15.80;1.00
1626;DHT22;806;48.770;9.156;2023-07-22T05:15:34;15.90;1.00
1626;DHT22;806;48.770;9.156;2023-07-22T05:18:01;16.00;1.00
1626;DHT22;806;48.770;9.156;2023-07-22T05:20:28;16.00;1.00
1626;DHT22;806;48.770;9.156;2023-07-22T05:22:55;16.10;1.00
1626;DHT22;806;48.770;9.156;2023-07-22T05:25:23;16.20;1.00
1626;DHT22;806;48.770;9.156;2023-07-22T05:27:50;16.30;1.00
1626;DHT22;806;48.770;9.156;2023-07-22T05:30:17;16.40;1.00
1626;DHT22;806;48.770;9.156;2023-07-22T05:32:44;16.50;1.00
1626;DHT22;806;48.770;9.156;2023-07-22T05:35:11;16.70;1.00
1626;DHT22;806;48.770;9.156;2023-07-22T05:37:38;16.80;1.00
1626;DHT22;806;48.770;9.156;2023-07-22T05:40:07;16.90;1.00
1626;DHT22;806;48.770;9.156;2023-07-22T05:42:35;16.80;1.00
1626;DHT22;806;48.770;9.156;2023-07-22T05:45:03;16.70;1.00
1626;DHT22;806;48.770;9.156;2023-07-22T05:47:31;16.70;1.00
1626;DHT22;806;48.770;9.156;2023-07-22T05:49:58;16.70;1.00
1626;DHT22;806;48.770;9.156;2023-07-22T05:52:25;16.80;1.00
1626;DHT22;806;48.770;9.156;2023-07-22T05:54:52;16.90;1.00
1626;DHT22;806;48.770;9.156;2023-07-22T05:57:19;17.00;1.00
1626;DHT22;806;48.770;9.156;2023-07-22T05:59:48;17.00;1.00
1626;DHT22;806;48.770;9.156;2023-07-22T06:02:16;17.10;99.90
1626;DHT22;806;48.770;9.156;2023-07-22T06:04:44;17.10;1.00
1626;DHT22;806;48.770;9.156;2023-07-22T06:07:11;17.20;1.00
1626;DHT22;806;48.770;9.156;2023-07-22T06:09:37;17.20;99.90
1626;DHT22;806;48.770;9.156;2023-07-22T06:12:05;17.30;99.90
1626;DHT22;806;48.770;9.156;2023-07-22T06:14:32;17.40;99.90
1626;DHT22;806;48.770;9.156;2023-07-22T06:17:01;17.50;99.90
1626;DHT22;806;48.770;9.156;2023-07-22T06:19:28;17.80;99.90
1626;DHT22;806;48.770;9.156;2023-07-22T06:21:55;18.00;1.00
1626;DHT22;806;48.770;9.156;2023-07-22T06:24:21;18.10;1.00
1626;DHT22;806;48.770;9.156;2023-07-22T06:26:48;18.10;99.90
1626;DHT22;806;48.770;9.156;2023-07-22T06:29:15;18.10;1.00
1626;DHT22;806;48.770;9.156;2023-07-22T06:31:42;18.20;1.00
1626;DHT22;806;48.770;9.156;2023-07-22T06:34:11;18.20;99.90
1626;DHT22;806;48.770;9.156;2023-07-22T06:36:38;18.20;99.90
1626;DHT22;806;48.770;9.156;2023-07-22T06:39:05;18.20;1.00
1626;DHT22;806;48.770;9.156;2023-07-22T06:41:32;18.20;99.90
1626;DHT22;806;48.770;9.156;2023-07-22T06:43:59;18.20;99.90
1626;DHT22;806;48.770;9.156;2023-07-22T06:46:26;18.40;1.00
1626;DHT22;806;48.770;9.156;2023-07-22T06:48:53;18.70;99.90
1626;DHT22;806;48.770;9.156;2023-07-22T06:51:21;18.90;1.00
1626;DHT22;806;48.770;9.156;2023-07-22T06:53:48;18.90;7.20
1626;DHT22;806;48.770;9.156;2023-07-22T06:56:15;18.90;1.00
1626;DHT22;806;48.770;9.156;2023-07-22T06:58:42;18.80;1.00
1626;DHT22;806;48.770;9.156;2023-07-22T07:01:11;18.70;1.00
1626;DHT22;806;48.770;9.156;2023-07-22T07:03:38;18.80;99.90
1626;DHT22;806;48.770;9.156;2023-07-22T07:06:05;18.90;44.70
1626;DHT22;806;48.770;9.156;2023-07-22T07:08:33;19.10;1.00
1626;DHT22;806;48.770;9.156;2023-07-22T07:11:00;19.30;1.00
1626;DHT22;806;48.770;9.156;2023-07-22T07:13:27;19.30;99.90
1626;DHT22;806;48.770;9.156;2023-07-22T07:15:54;19.40;1.00
1626;DHT22;806;48.770;9.156;2023-07-22T07:18:21;19.60;1.00
1626;DHT22;806;48.770;9.156;2023-07-22T07:20:48;19.60;99.90
1626;DHT22;806;48.770;9.156;2023-07-22T07:23:16;19.70;1.00
1626;DHT22;806;48.770;9.156;2023-07-22T07:25:45;19.80;1.00
1626;DHT22;806;48.770;9.156;2023-07-22T07:28:12;19.90;1.00
1626;DHT22;806;48.770;9.156;2023-07-22T07:30:40;20.10;1.00
1626;DHT22;806;48.770;9.156;2023-07-22T07:33:07;20.10;99.90
1626;DHT22;806;48.770;9.156;2023-07-22T07:35:34;20.10;99.90
1626;DHT22;806;48.770;9.156;2023-07-22T07:38:01;20.30;99.90
1626;DHT22;806;48.770;9.156;2023-07-22T07:40:28;20.70;1.00
1626;DHT22;806;48.770;9.156;2023-07-22T07:42:58;20.90;1.00
1626;DHT22;806;48.770;9.156;2023-07-22T07:45:25;20.90;1.00
1626;DHT22;806;48.770;9.156;2023-07-22T07:47:52;20.90;1.00
1626;DHT22;806;48.770;9.156;2023-07-22T07:50:19;21.20;99.90
1626;DHT22;806;48.770;9.156;2023-07-22T07:52:46;21.40;99.90
1626;DHT22;806;48.770;9.156;2023-07-22T07:55:14;21.50;99.90
1626;DHT22;806;48.770;9.156;2023-07-22T07:57:40;21.60;99.90
1626;DHT22;806;48.770;9.156;2023-07-22T08:00:10;21.70;99.90
1626;DHT22;806;48.770;9.156;2023-07-22T08:02:37;21.80;79.10
1626;DHT22;806;48.770;9.156;2023-07-22T08:05:04;21.90;45.00
1626;DHT22;806;48.770;9.156;2023-07-22T08:07:32;22.00;35.30
1626;DHT22;806;48.770;9.156;2023-07-22T08:10:00;21.90;1.00
1626;DHT22;806;48.770;9.156;2023-07-22T08:12:30;21.90;1.00
1626;DHT22;806;48.770;9.156;2023-07-22T08:14:57;21.80;1.00
1626;DHT22;806;48.770;9.156;2023-07-22T08:17:25;21.80;1.00
1626;DHT22;806;48.770;9.156;2023-07-22T08:19:52;21.90;1.00
1626;DHT22;806;48.770;9.156;2023-07-22T08:22:19;22.00;1.00
1626;DHT22;806;48.770;9.156;2023-07-22T08:24:46;21.90;1.00
1626;DHT22;806;48.770;9.156;2023-07-22T08:27:13;22.00;1.00
1626;DHT22;806;48.770;9.156;2023-07-22T08:29:40;22.00;1.00
1626;DHT22;806;48.770;9.156;2023-07-22T08:32:07;22.20;1.00
1626;DHT22;806;48.770;9.156;2023-07-22T08:34:35;22.40;1.00
1626;DHT22;806;48.770;9.156;2023-07-22T08:37:02;22.50;1.00
1626;DHT22;806;48.770;9.156;2023-07-22T08:39:31;22.70;1.00
1626;DHT22;806;48.770;9.156;2023-07-22T08:41:59;23.00;1.00
1626;DHT22;806;48.770;9.156;2023-07-22T08:44:32;23.20;1.00
1626;DHT22;806;48.770;9.156;2023-07-22T08:47:01;23.40;1.00
1626;DHT22;806;48.770;9.156;2023-07-22T08:49:30;23.40;1.00
1626;DHT22;806;48.770;9.156;2023-07-22T08:51:59;23.50;1.00
1626;DHT22;806;48.770;9.156;2023-07-22T08:54:27;23.50;1.00
1626;DHT22;806;48.770;9.156;2023-07-22T08:56:55;23.50;1.00
1626;DHT22;806;48.770;9.156;2023-07-22T08:59:22;23.90;1.00
1626;DHT22;806;48.770;9.156;2023-07-22T09:01:51;24.30;1.00
1626;DHT22;806;48.770;9.156;2023-07-22T09:04:18;24.50;1.00
1626;DHT22;806;48.770;9.156;2023-07-22T09:06:46;24.50;1.00
1626;DHT22;806;48.770;9.156;2023-07-22T09:09:14;24.50;1.00
1626;DHT22;806;48.770;9.156;2023-07-22T09:11:42;24.40;1.00
1626;DHT22;806;48.770;9.156;2023-07-22T09:14:10;24.30;1.00
1626;DHT22;806;48.770;9.156;2023-07-22T09:16:37;24.20;1.00
1626;DHT22;806;48.770;9.156;2023-07-22T09:19:04;24.10;1.00
1626;DHT22;806;48.770;9.156;2023-07-22T09:21:32;24.10;1.00
1626;DHT22;806;48.770;9.156;2023-07-22T09:24:01;24.10;1.00
1626;DHT22;806;48.770;9.156;2023-07-22T09:26:32;24.30;1.00
1626;DHT22;806;48.770;9.156;2023-07-22T09:28:59;24.10;1.00
1626;DHT22;806;48.770;9.156;2023-07-22T09:31:27;23.90;1.00
1626;DHT22;806;48.770;9.156;2023-07-22T09:33:55;23.90;1.00
1626;DHT22;806;48.770;9.156;2023-07-22T09:36:22;23.80;1.00
1626;DHT22;806;48.770;9.156;2023-07-22T09:38:59;23.70;1.00
1626;DHT22;806;48.770;9.156;2023-07-22T09:41:29;23.80;1.00
1626;DHT22;806;48.770;9.156;2023-07-22T09:43:56;23.90;1.00
1626;DHT22;806;48.770;9.156;2023-07-22T09:46:31;24.10;1.00
1626;DHT22;806;48.770;9.156;2023-07-22T09:49:02;24.10;1.00
1626;DHT22;806;48.770;9.156;2023-07-22T09:51:33;24.10;1.00
1626;DHT22;806;48.770;9.156;2023-07-22T09:54:04;24.20;1.00
1626;DHT22;806;48.770;9.156;2023-07-22T09:56:43;24.30;1.00
1626;DHT22;806;48.770;9.156;2023-07-22T09:59:10;24.50;1.00
1626;DHT22;806;48.770;9.156;2023-07-22T10:01:38;24.30;1.00
1626;DHT22;806;48.770;9.156;2023-07-22T10:04:06;24.40;1.00
1626;DHT22;806;48.770;9.156;2023-07-22T10:06:34;24.50;1.00
1626;DHT22;806;48.770;9.156;2023-07-22T10:09:03;24.70;1.00
1626;DHT22;806;48.770;9.156;2023-07-22T10:11:34;24.90;1.00
1626;DHT22;806;48.770;9.156;2023-07-22T10:14:02;25.10;1.00
1626;DHT22;806;48.770;9.156;2023-07-22T10:16:30;25.30;1.00
1626;DHT22;806;48.770;9.156;2023-07-22T10:18:58;25.40;1.00
1626;DHT22;806;48.770;9.156;2023-07-22T10:21:26;25.30;1.00
1626;DHT22;806;48.770;9.156;2023-07-22T10:23:55;25.30;1.00
1626;DHT22;806;48.770;9.156;2023-07-22T10:26:22;25.40;1.00
1626;DHT22;806;48.770;9.156;2023-07-22T10:28:51;25.20;1.00
1626;DHT22;806;48.770;9.156;2023-07-22T10:31:18;24.90;1.00
1626;DHT22;806;48.770;9.156;2023-07-22T10:33:46;25.00;1.00
1626;DHT22;806;48.770;9.156;2023-07-22T10:36:14;24.80;1.00
1626;DHT22;806;48.770;9.156;2023-07-22T10:38:42;24.60;1.00
1626;DHT22;806;48.770;9.156;2023-07-22T10:41:14;25.00;1.00
1626;DHT22;806;48.770;9.156;2023-07-22T10:43:42;25.30;1.00
1626;DHT22;806;48.770;9.156;2023-07-22T10:46:31;25.70;1.00
1626;DHT22;806;48.770;9.156;2023-07-22T10:49:08;25.90;1.00
1626;DHT22;806;48.770;9.156;2023-07-22T10:51:36;26.40;1.00
1626;DHT22;806;48.770;9.156;2023-07-22T10:54:10;26.50;1.00
1626;DHT22;806;48.770;9.156;2023-07-22T10:56:37;26.50;1.00
1626;DHT22;806;48.770;9.156;2023-07-22T10:59:05;26.20;1.00
1626;DHT22;806;48.770;9.156;2023-07-22T11:01:35;26.40;1.00
1626;DHT22;806;48.770;9.156;2023-07-22T11:04:23;26.80;1.00
1626;DHT22;806;48.770;9.156;2023-07-22T11:07:07;26.70;1.00
1626;DHT22;806;48.770;9.156;2023-07-22T11:09:36;26.70;1.00
1626;DHT22;806;48.770;9.156;2023-07-22T11:12:04;26.80;1.00
1626;DHT22;806;48.770;9.156;2023-07-22T11:14:33;26.50;1.00
1626;DHT22;806;48.770;9.156;2023-07-22T11:17:03;26.20;1.00
1626;DHT22;806;48.770;9.156;2023-07-22T11:19:31;25.70;1.00
1626;DHT22;806;48.770;9.156;2023-07-22T11:21:59;25.50;1.00
1626;DHT22;806;48.770;9.156;2023-07-22T11:24:27;25.50;1.00
1626;DHT22;806;48.770;9.156;2023-07-22T11:26:54;25.70;1.00
1626;DHT22;806;48.770;9.156;2023-07-22T11:29:21;25.70;1.00
1626;DHT22;806;48.770;9.156;2023-07-22T11:31:50;25.60;1.00
1626;DHT22;806;48.770;9.156;2023-07-22T11:34:20;25.70;1.00
1626;DHT22;806;48.770;9.156;2023-07-22T11:36:47;26.10;1.00
1626;DHT22;806;48.770;9.156;2023-07-22T11:39:15;26.90;1.00
1626;DHT22;806;48.770;9.156;2023-07-22T11:41:43;26.80;1.00
1626;DHT22;806;48.770;9.156;2023-07-22T11:44:12;26.80;1.00
1626;DHT22;806;48.770;9.156;2023-07-22T11:46:47;26.70;1.00
1626;DHT22;806;48.770;9.156;2023-07-22T11:49:26;26.80;1.00
1626;DHT22;806;48.770;9.156;2023-07-22T11:51:55;27.40;1.00
1626;DHT22;806;48.770;9.156;2023-07-22T11:54:22;27.60;1.00
1626;DHT22;806;48.770;9.156;2023-07-22T11:56:49;27.80;1.00
1626;DHT22;806;48.770;9.156;2023-07-22T11:59:16;28.20;1.00
1626;DHT22;806;48.770;9.156;2023-07-22T12:01:45;28.20;1.00
1626;DHT22;806;48.770;9.156;2023-07-22T12:04:13;28.00;1.00
1626;DHT22;806;48.770;9.156;2023-07-22T12:06:42;27.60;1.00
1626;DHT22;806;48.770;9.156;2023-07-22T12:09:09;27.00;1.00
1626;DHT22;806;48.770;9.156;2023-07-22T12:11:37;26.80;1.00
1626;DHT22;806;48.770;9.156;2023-07-22T12:14:06;26.50;1.00
1626;DHT22;806;48.770;9.156;2023-07-22T12:16:35;26.30;1.00
1626;DHT22;806;48.770;9.156;2023-07-22T12:19:03;26.30;1.00
1626;DHT22;806;48.770;9.156;2023-07-22T12:21:30;26.20;1.00
1626;DHT22;806;48.770;9.156;2023-07-22T12:23:59;26.20;1.00
1626;DHT22;806;48.770;9.156;2023-07-22T12:26:27;26.70;1.00
1626;DHT22;806;48.770;9.156;2023-07-22T12:28:54;27.50;1.00
1626;DHT22;806;48.770;9.156;2023-07-22T12:31:21;28.10;1.00
1626;DHT22;806;48.770;9.156;2023-07-22T12:33:48;28.40;1.00
1626;DHT22;806;48.770;9.156;2023-07-22T12:36:15;28.00;1.00
1626;DHT22;806;48.770;9.156;2023-07-22T12:38:42;27.40;1.00
1626;DHT22;806;48.770;9.156;2023-07-22T12:41:10;27.10;1.00
1626;DHT22;806;48.770;9.156;2023-07-22T12:43:37;26.80;1.00
1626;DHT22;806;48.770;9.156;2023-07-22T12:46:04;26.80;1.00
1626;DHT22;806;48.770;9.156;2023-07-22T12:48:31;26.90;1.00
1626;DHT22;806;48.770;9.156;2023-07-22T12:50:58;26.80;1.00
1626;DHT22;806;48.770;9.156;2023-07-22T12:53:26;26.60;1.00
1626;DHT22;806;48.770;9.156;2023-07-22T12:55:53;26.40;1.00
1626;DHT22;806;48.770;9.156;2023-07-22T12:58:21;26.50;1.00
1626;DHT22;806;48.770;9.156;2023-07-22T13:00:48;26.90;1.00
1626;DHT22;806;48.770;9.156;2023-07-22T13:03:15;27.30;1.00
1626;DHT22;806;48.770;9.156;2023-07-22T13:05:42;28.00;1.00
1626;DHT22;806;48.770;9.156;2023-07-22T13:08:09;28.60;1.00
1626;DHT22;806;48.770;9.156;2023-07-22T13:10:36;29.00;1.00
1626;DHT22;806;48.770;9.156;2023-07-22T13:13:05;29.20;1.00
1626;DHT22;806;48.770;9.156;2023-07-22T13:15:33;29.00;1.00
1626;DHT22;806;48.770;9.156;2023-07-22T13:18:00;28.20;1.00
1626;DHT22;806;48.770;9.156;2023-07-22T13:20:28;27.60;1.00
1626;DHT22;806;48.770;9.156;2023-07-22T13:22:55;27.30;1.00
1626;DHT22;806;48.770;9.156;2023-07-22T13:25:23;27.20;1.00
1626;DHT22;806;48.770;9.156;2023-07-22T13:27:50;27.40;1.00
1626;DHT22;806;48.770;9.156;2023-07-22T13:30:17;28.00;1.00
1626;DHT22;806;48.770;9.156;2023-07-22T13:32:45;27.90;1.00
1626;DHT22;806;48.770;9.156;2023-07-22T13:35:12;27.90;1.00
1626;DHT22;806;48.770;9.156;2023-07-22T13:37:39;27.50;1.00
1626;DHT22;806;48.770;9.156;2023-07-22T13:40:07;27.40;1.00
1626;DHT22;806;48.770;9.156;2023-07-22T13:42:37;27.60;1.00
1626;DHT22;806;48.770;9.156;2023-07-22T13:45:05;27.80;1.00
1626;DHT22;806;48.770;9.156;2023-07-22T13:47:32;27.70;1.00
1626;DHT22;806;48.770;9.156;2023-07-22T13:50:00;27.70;1.00
1626;DHT22;806;48.770;9.156;2023-07-22T13:52:27;27.50;1.00
1626;DHT22;806;48.770;9.156;2023-07-22T13:54:54;27.40;1.00
1626;DHT22;806;48.770;9.156;2023-07-22T13:57:21;27.50;1.00
1626;DHT22;806;48.770;9.156;2023-07-22T13:59:48;27.70;1.00
1626;DHT22;806;48.770;9.156;2023-07-22T14:02:15;27.80;1.00
1626;DHT22;806;48.770;9.156;2023-07-22T14:04:42;28.00;1.00
1626;DHT22;806;48.770;9.156;2023-07-22T14:07:11;28.20;1.00
1626;DHT22;806;48.770;9.156;2023-07-22T14:09:38;28.00;1.00
1626;DHT22;806;48.770;9.156;2023-07-22T14:12:06;27.70;1.00
1626;DHT22;806;48.770;9.156;2023-07-22T14:14:33;27.40;1.00
1626;DHT22;806;48.770;9.156;2023-07-22T14:17:00;27.20;1.00
1626;DHT22;806;48.770;9.156;2023-07-22T14:19:27;27.30;1.00
1626;DHT22;806;48.770;9.156;2023-07-22T14:21:54;27.30;1.00
1626;DHT22;806;48.770;9.156;2023-07-22T14:24:22;27.80;1.00
1626;DHT22;806;48.770;9.156;2023-07-22T14:26:49;27.90;1.00
1626;DHT22;806;48.770;9.156;2023-07-22T14:29:16;28.00;1.00
1626;DHT22;806;48.770;9.156;2023-07-22T14:31:43;28.00;1.00
1626;DHT22;806;48.770;9.156;2023-07-22T14:34:10;28.20;1.00
1626;DHT22;806;48.770;9.156;2023-07-22T14:36:37;28.30;1.00
1626;DHT22;806;48.770;9.156;2023-07-22T14:39:04;28.30;1.00
1626;DHT22;806;48.770;9.156;2023-07-22T14:41:32;28.50;1.00
1626;DHT22;806;48.770;9.156;2023-07-22T14:43:59;28.60;1.00
1626;DHT22;806;48.770;9.156;2023-07-22T14:46:26;28.70;1.00
1626;DHT22;806;48.770;9.156;2023-07-22T14:48:53;28.50;1.00
1626;DHT22;806;48.770;9.156;2023-07-22T14:51:20;28.50;1.00
1626;DHT22;806;48.770;9.156;2023-07-22T14:53:48;28.50;1.00
1626;DHT22;806;48.770;9.156;2023-07-22T14:56:15;28.10;1.00
1626;DHT22;806;48.770;9.156;2023-07-22T14:58:43;27.70;1.00
1626;DHT22;806;48.770;9.156;2023-07-22T15:01:10;27.60;1.00
1626;DHT22;806;48.770;9.156;2023-07-22T15:03:37;27.40;1.00
1626;DHT22;806;48.770;9.156;2023-07-22T15:06:05;27.20;1.00
1626;DHT22;806;48.770;9.156;2023-07-22T15:08:32;26.80;1.00
1626;DHT22;806;48.770;9.156;2023-07-22T15:10:59;26.90;1.00
1626;DHT22;806;48.770;9.156;2023-07-22T15:13:26;26.90;1.00
1626;DHT22;806;48.770;9.156;2023-07-22T15:15:55;26.80;1.00
1626;DHT22;806;48.770;9.156;2023-07-22T15:18:22;26.80;1.00
1626;DHT22;806;48.770;9.156;2023-07-22T15:20:50;26.80;1.00
1626;DHT22;806;48.770;9.156;2023-07-22T15:23:18;26.80;1.00
1626;DHT22;806;48.770;9.156;2023-07-22T15:25:45;26.80;1.00
1626;DHT22;806;48.770;9.156;2023-07-22T15:28:12;26.90;1.00
1626;DHT22;806;48.770;9.156;2023-07-22T15:30:39;26.80;1.00
1626;DHT22;806;48.770;9.156;2023-07-22T15:33:08;26.90;1.00
1626;DHT22;806;48.770;9.156;2023-07-22T15:35:35;26.90;1.00
1626;DHT22;806;48.770;9.156;2023-07-22T15:38:02;26.80;1.00
1626;DHT22;806;48.770;9.156;2023-07-22T15:40:29;26.80;1.00
1626;DHT22;806;48.770;9.156;2023-07-22T15:42:56;26.80;1.00
1626;DHT22;806;48.770;9.156;2023-07-22T15:45:23;26.90;1.00
1626;DHT22;806;48.770;9.156;2023-07-22T15:47:50;27.00;1.00
1626;DHT22;806;48.770;9.156;2023-07-22T15:50:18;27.00;1.00
1626;DHT22;806;48.770;9.156;2023-07-22T15:52:45;27.10;1.00
1626;DHT22;806;48.770;9.156;2023-07-22T15:55:12;27.00;1.00
1626;DHT22;806;48.770;9.156;2023-07-22T15:57:39;27.00;1.00
1626;DHT22;806;48.770;9.156;2023-07-22T16:00:09;26.90;1.00
1626;DHT22;806;48.770;9.156;2023-07-22T16:02:38;26.70;1.00
1626;DHT22;806;48.770;9.156;2023-07-22T16:05:06;26.70;1.00
1626;DHT22;806;48.770;9.156;2023-07-22T16:07:35;26.60;1.00
1626;DHT22;806;48.770;9.156;2023-07-22T16:10:03;26.60;1.00
1626;DHT22;806;48.770;9.156;2023-07-22T16:12:30;26.70;1.00
1626;DHT22;806;48.770;9.156;2023-07-22T16:14:58;26.60;1.00
1626;DHT22;806;48.770;9.156;2023-07-22T16:17:25;26.50;1.00
1626;DHT22;806;48.770;9.156;2023-07-22T16:19:52;26.50;1.00
1626;DHT22;806;48.770;9.156;2023-07-22T16:22:19;26.40;1.00
1626;DHT22;806;48.770;9.156;2023-07-22T16:24:47;26.30;1.00
1626;DHT22;806;48.770;9.156;2023-07-22T16:27:14;26.30;1.00
1626;DHT22;806;48.770;9.156;2023-07-22T16:29:41;26.30;1.00
1626;DHT22;806;48.770;9.156;2023-07-22T16:32:09;26.30;1.00
1626;DHT22;806;48.770;9.156;2023-07-22T16:34:36;26.40;1.00